createdAt,value
2023-04-29T00:01:21.127Z,15.27
2023-04-29T00:03:48.206Z,12.97
2023-04-29T00:06:16.014Z,12.93
2023-04-29T00:08:43.050Z,12.83
2023-04-29T00:11:11.659Z,13.53
2023-04-29T00:13:40.763Z,14.73
2023-04-29T00:16:10.217Z,14.93
2023-04-29T00:18:37.927Z,16.10
2023-04-29T00:21:08.412Z,13.50
2023-04-29T00:23:35.522Z,14.00
2023-04-29T00:26:02.601Z,20.23
2023-04-29T00:28:30.007Z,14.03
2023-04-29T00:30:57.184Z,14.40
2023-04-29T00:33:24.292Z,14.40
2023-04-29T00:35:51.291Z,15.50
2023-04-29T00:38:18.426Z,16.60
2023-04-29T00:40:45.688Z,16.13
2023-04-29T00:43:13.448Z,17.43
2023-04-29T00:45:40.537Z,14.63
2023-04-29T00:48:07.923Z,15.40
2023-04-29T00:50:36.572Z,15.73
2023-04-29T00:53:04.165Z,15.00
2023-04-29T00:55:33.203Z,14.77
2023-04-29T00:58:02.504Z,14.40
2023-04-29T01:00:30.394Z,14.20
2023-04-29T01:02:59.604Z,14.60
2023-04-29T01:05:26.958Z,15.30
2023-04-29T01:08:10.089Z,18.93
2023-04-29T01:10:54.434Z,15.20
2023-04-29T01:13:30.844Z,14.07
2023-04-29T01:16:11.221Z,31.43
2023-04-29T01:18:49.822Z,15.67
2023-04-29T01:21:18.297Z,19.43
2023-04-29T01:23:45.696Z,23.50
2023-04-29T01:26:12.657Z,18.30
2023-04-29T01:29:10.685Z,17.87
2023-04-29T01:32:04.150Z,19.03
2023-04-29T01:34:40.928Z,20.23
2023-04-29T01:37:17.426Z,16.97
2023-04-29T01:39:56.326Z,17.13
2023-04-29T01:42:27.291Z,17.83
2023-04-29T01:44:56.728Z,18.50
2023-04-29T01:47:24.965Z,17.60
2023-04-29T01:49:52.107Z,18.23
2023-04-29T01:52:19.163Z,16.23
2023-04-29T01:54:46.499Z,14.60
2023-04-29T01:57:13.526Z,17.07
2023-04-29T01:59:40.488Z,23.23
2023-04-29T02:02:07.442Z,16.40
2023-04-29T02:04:34.506Z,18.60
2023-04-29T02:07:01.631Z,18.77
2023-04-29T02:09:28.563Z,16.73
2023-04-29T02:11:55.511Z,14.83
2023-04-29T02:14:22.424Z,18.87
2023-04-29T02:16:49.558Z,14.87
2023-04-29T02:19:16.667Z,17.20
2023-04-29T02:21:44.001Z,15.97
2023-04-29T02:24:10.925Z,14.93
2023-04-29T02:26:38.298Z,15.23
2023-04-29T02:29:05.279Z,24.30
2023-04-29T02:31:32.562Z,15.13
2023-04-29T02:34:00.562Z,18.70
2023-04-29T02:36:28.437Z,41.50
2023-04-29T02:38:56.335Z,14.90
2023-04-29T02:41:23.618Z,27.83
2023-04-29T02:43:50.523Z,15.27
2023-04-29T02:46:18.761Z,17.27
2023-04-29T02:48:45.825Z,18.77
2023-04-29T02:51:12.821Z,15.40
2023-04-29T02:53:39.861Z,15.13
2023-04-29T02:56:06.803Z,14.40
2023-04-29T02:58:33.727Z,14.10
2023-04-29T03:01:00.673Z,13.33
2023-04-29T03:03:27.862Z,15.93
2023-04-29T03:05:54.932Z,15.43
2023-04-29T03:08:22.182Z,14.37
2023-04-29T03:10:49.098Z,13.80
2023-04-29T03:13:16.290Z,11.63
2023-04-29T03:15:44.141Z,13.97
2023-04-29T03:18:11.073Z,12.93
2023-04-29T03:20:38.235Z,14.27
2023-04-29T03:23:05.312Z,12.23
2023-04-29T03:25:32.238Z,13.30
2023-04-29T03:27:59.168Z,14.03
2023-04-29T03:30:26.430Z,14.67
2023-04-29T03:32:53.344Z,15.20
2023-04-29T03:35:20.276Z,15.83
2023-04-29T03:37:47.192Z,15.80
2023-04-29T03:40:14.157Z,14.73
2023-04-29T03:42:41.390Z,14.43
2023-04-29T03:45:09.117Z,14.60
2023-04-29T03:47:36.046Z,15.17
2023-04-29T03:50:03.612Z,15.23
2023-04-29T03:52:30.662Z,13.67
2023-04-29T03:54:57.765Z,15.50
2023-04-29T03:57:24.894Z,15.90
2023-04-29T03:59:51.916Z,14.43
2023-04-29T04:02:19.674Z,17.13
2023-04-29T04:04:47.056Z,15.97
2023-04-29T04:07:14.067Z,22.00
2023-04-29T04:09:41.033Z,13.17
2023-04-29T04:12:07.958Z,14.03
2023-04-29T04:14:34.855Z,11.97
2023-04-29T04:17:01.815Z,12.07
2023-04-29T04:19:30.579Z,12.07
2023-04-29T04:21:57.522Z,13.23
2023-04-29T04:24:24.471Z,12.63
2023-04-29T04:26:51.373Z,15.53
2023-04-29T04:29:18.289Z,12.73
2023-04-29T04:31:47.000Z,12.30
2023-04-29T04:34:14.254Z,12.30
2023-04-29T04:36:42.170Z,13.93
2023-04-29T04:39:09.259Z,12.90
2023-04-29T04:41:36.181Z,12.53
2023-04-29T04:44:03.184Z,11.10
2023-04-29T04:46:30.130Z,10.83
2023-04-29T04:48:57.054Z,11.10
2023-04-29T04:51:23.940Z,11.30
2023-04-29T04:53:51.631Z,11.03
2023-04-29T04:56:18.546Z,13.27
2023-04-29T04:58:45.525Z,10.40
2023-04-29T05:01:12.485Z,11.27
2023-04-29T05:03:39.623Z,9.90
2023-04-29T05:06:06.733Z,12.53
2023-04-29T05:08:33.665Z,9.17
2023-04-29T05:11:00.776Z,8.77
2023-04-29T05:13:27.927Z,14.23
2023-04-29T05:15:54.844Z,9.87
2023-04-29T05:18:21.792Z,17.03
2023-04-29T05:20:48.668Z,8.13
2023-04-29T05:23:15.863Z,13.40
2023-04-29T05:25:42.757Z,9.00
2023-04-29T05:28:09.648Z,10.07
2023-04-29T05:30:37.780Z,9.43
2023-04-29T05:33:05.019Z,9.47
2023-04-29T05:35:32.996Z,12.43
2023-04-29T05:37:59.867Z,10.90
2023-04-29T05:40:27.114Z,15.93
2023-04-29T05:42:54.329Z,10.17
2023-04-29T05:45:21.349Z,11.10
2023-04-29T05:47:48.305Z,11.10
2023-04-29T05:50:15.280Z,10.93
2023-04-29T05:52:42.207Z,10.53
2023-04-29T05:55:09.405Z,11.83
2023-04-29T05:57:36.354Z,11.03
2023-04-29T06:00:04.080Z,10.53
2023-04-29T06:02:31.093Z,10.90
2023-04-29T06:04:58.288Z,11.27
2023-04-29T06:07:26.756Z,10.90
2023-04-29T06:09:54.781Z,14.83
2023-04-29T06:12:21.914Z,10.60
2023-04-29T06:14:48.803Z,11.53
2023-04-29T06:17:15.900Z,12.20
2023-04-29T06:19:42.801Z,17.53
2023-04-29T06:22:10.030Z,12.97
2023-04-29T06:24:37.065Z,15.77
2023-04-29T06:27:04.577Z,14.20
2023-04-29T06:29:31.466Z,13.27
2023-04-29T06:31:58.425Z,14.53
2023-04-29T06:34:25.666Z,11.67
2023-04-29T06:36:52.577Z,15.13
2023-04-29T06:39:19.463Z,13.17
2023-04-29T06:41:46.649Z,12.93
2023-04-29T06:44:13.562Z,12.57
2023-04-29T06:46:40.581Z,11.13
2023-04-29T06:49:07.525Z,11.97
2023-04-29T06:51:35.637Z,10.90
2023-04-29T06:54:02.584Z,10.83
2023-04-29T06:56:29.834Z,24.97
2023-04-29T06:58:56.768Z,12.30
2023-04-29T07:01:23.759Z,18.50
2023-04-29T07:03:50.905Z,13.67
2023-04-29T07:06:17.998Z,11.67
2023-04-29T07:08:45.154Z,15.20
2023-04-29T07:11:12.175Z,11.77
2023-04-29T07:13:39.342Z,21.03
2023-04-29T07:16:15.193Z,10.53
2023-04-29T07:18:42.166Z,10.23
2023-04-29T07:21:09.079Z,10.57
2023-04-29T07:23:35.978Z,10.67
2023-04-29T07:26:10.314Z,12.00
2023-04-29T07:28:37.219Z,17.43
2023-04-29T07:31:04.278Z,10.53
2023-04-29T07:33:31.423Z,20.40
2023-04-29T07:35:58.404Z,14.20
2023-04-29T07:38:25.427Z,11.83
2023-04-29T07:40:52.443Z,17.40
2023-04-29T07:43:19.382Z,12.20
2023-04-29T07:45:46.324Z,11.60
2023-04-29T07:48:13.342Z,12.43
2023-04-29T07:50:40.340Z,11.57
2023-04-29T07:53:07.420Z,12.80
2023-04-29T07:55:34.361Z,12.03
2023-04-29T07:58:01.247Z,21.53
2023-04-29T08:00:28.301Z,13.50
2023-04-29T08:02:56.492Z,15.30
2023-04-29T08:05:24.879Z,12.87
2023-04-29T08:07:52.613Z,12.27
2023-04-29T08:10:19.636Z,12.10
2023-04-29T08:12:47.684Z,14.50
2023-04-29T08:15:14.661Z,14.10
2023-04-29T08:17:41.823Z,13.53
2023-04-29T08:20:09.359Z,13.47
2023-04-29T08:22:36.615Z,14.40
2023-04-29T08:25:05.083Z,14.60
2023-04-29T08:27:32.043Z,27.63
2023-04-29T08:29:59.132Z,15.30
2023-04-29T08:32:26.237Z,20.73
2023-04-29T08:34:53.377Z,16.30
2023-04-29T08:37:20.683Z,15.93
2023-04-29T08:39:47.965Z,25.73
2023-04-29T08:42:14.957Z,17.70
2023-04-29T08:44:43.375Z,19.63
2023-04-29T08:47:10.364Z,16.73
2023-04-29T08:49:38.214Z,16.83
2023-04-29T08:52:05.576Z,17.77
2023-04-29T08:54:32.953Z,21.53
2023-04-29T08:57:00.440Z,42.13
2023-04-29T08:59:29.192Z,19.37
2023-04-29T09:01:57.186Z,21.30
2023-04-29T09:04:37.189Z,46.93
2023-04-29T09:07:05.390Z,23.67
2023-04-29T09:09:33.268Z,19.97
2023-04-29T09:12:00.485Z,20.87
2023-04-29T09:14:30.348Z,23.53
2023-04-29T09:16:57.676Z,54.73
2023-04-29T09:19:34.833Z,21.70
2023-04-29T09:22:03.066Z,20.23
2023-04-29T09:24:31.642Z,19.73
2023-04-29T09:26:59.802Z,31.33
2023-04-29T09:29:26.754Z,20.20
2023-04-29T09:31:53.824Z,24.90
2023-04-29T09:34:40.834Z,31.67
2023-04-29T09:37:24.487Z,18.47
2023-04-29T09:39:51.423Z,19.10
2023-04-29T09:42:18.378Z,19.70
2023-04-29T09:44:45.460Z,20.40
2023-04-29T09:47:13.348Z,19.70
2023-04-29T09:49:43.019Z,41.70
2023-04-29T09:52:12.326Z,21.27
2023-04-29T09:54:41.052Z,23.20
2023-04-29T09:57:09.538Z,19.93
2023-04-29T09:59:38.471Z,18.23
2023-04-29T10:02:18.720Z,18.70
2023-04-29T10:04:48.296Z,18.23
2023-04-29T10:07:16.859Z,17.73
2023-04-29T10:09:48.096Z,17.43
2023-04-29T10:12:17.585Z,17.43
2023-04-29T10:14:50.532Z,28.27
2023-04-29T10:17:24.338Z,16.97
2023-04-29T10:19:54.252Z,16.00
2023-04-29T10:22:32.483Z,17.53
2023-04-29T10:25:01.524Z,14.13
2023-04-29T10:27:32.146Z,16.10
2023-04-29T10:30:02.275Z,14.73
2023-04-29T10:32:43.398Z,14.90
2023-04-29T10:35:20.012Z,14.30
2023-04-29T10:37:48.968Z,19.77
2023-04-29T10:40:40.164Z,17.37
2023-04-29T10:43:07.431Z,14.00
2023-04-29T10:45:37.740Z,18.30
2023-04-29T10:48:10.744Z,11.80
2023-04-29T10:50:46.708Z,9.73
2023-04-29T10:53:20.418Z,9.50
2023-04-29T10:55:49.167Z,8.97
2023-04-29T10:58:34.707Z,9.10
2023-04-29T11:01:02.159Z,7.80
2023-04-29T11:03:49.193Z,9.00
2023-04-29T11:06:16.625Z,9.15
2023-04-29T11:08:43.697Z,10.60
2023-04-29T11:11:12.958Z,10.20
2023-04-29T11:13:40.676Z,9.63
2023-04-29T11:16:09.963Z,9.77
2023-04-29T11:19:07.066Z,10.27
2023-04-29T11:21:36.083Z,8.87
2023-04-29T11:24:06.865Z,8.70
2023-04-29T11:26:37.039Z,9.73
2023-04-29T11:29:10.500Z,9.33
2023-04-29T11:31:39.232Z,10.27
2023-04-29T11:34:07.258Z,8.93
2023-04-29T11:36:34.708Z,9.17
2023-04-29T11:39:03.675Z,8.67
2023-04-29T11:41:31.544Z,8.93
2023-04-29T11:44:00.007Z,8.63
2023-04-29T11:46:30.779Z,8.47
2023-04-29T11:49:00.040Z,12.73
2023-04-29T11:51:28.122Z,8.27
2023-04-29T11:53:56.637Z,8.33
2023-04-29T11:56:25.442Z,7.70
2023-04-29T11:58:59.747Z,7.87
2023-04-29T12:01:27.105Z,7.27
2023-04-29T12:03:59.253Z,7.43
2023-04-29T12:06:30.152Z,7.40
2023-04-29T12:09:00.269Z,7.67
2023-04-29T12:11:28.149Z,6.17
2023-04-29T12:13:55.330Z,7.27
2023-04-29T12:16:24.085Z,5.53
2023-04-29T12:18:53.212Z,6.07
2023-04-29T12:21:22.547Z,5.80
2023-04-29T12:23:51.456Z,6.37
2023-04-29T12:26:20.833Z,6.43
2023-04-29T12:28:53.632Z,7.93
2023-04-29T12:31:21.231Z,7.30
2023-04-29T12:33:48.195Z,8.40
2023-04-29T12:36:19.171Z,8.03
2023-04-29T12:38:47.502Z,7.60
2023-04-29T12:41:17.366Z,8.60
2023-04-29T12:43:44.682Z,7.60
2023-04-29T12:46:12.791Z,7.83
2023-04-29T12:48:41.730Z,8.13
2023-04-29T12:51:10.500Z,7.23
2023-04-29T12:53:38.168Z,7.20
2023-04-29T12:56:05.991Z,6.47
2023-04-29T12:58:34.708Z,6.53
2023-04-29T13:01:01.806Z,7.20
2023-04-29T13:03:29.106Z,7.07
2023-04-29T13:05:56.284Z,6.87
2023-04-29T13:08:23.316Z,7.77
2023-04-29T13:10:50.925Z,8.90
2023-04-29T13:13:17.915Z,5.63
2023-04-29T13:15:44.864Z,10.43
2023-04-29T13:18:11.860Z,5.70
2023-04-29T13:20:42.369Z,6.27
2023-04-29T13:23:10.613Z,7.43
2023-04-29T13:25:37.913Z,6.03
2023-04-29T13:28:08.175Z,10.67
2023-04-29T13:30:35.943Z,7.10
2023-04-29T13:33:09.954Z,8.83
2023-04-29T13:35:40.095Z,6.93
2023-04-29T13:38:10.092Z,7.10
2023-04-29T13:40:40.717Z,14.77
2023-04-29T13:43:15.403Z,8.57
2023-04-29T13:45:47.865Z,6.43
2023-04-29T13:48:26.015Z,7.03
2023-04-29T13:54:17.334Z,5.83
2023-04-29T14:02:08.011Z,6.33
2023-04-29T14:04:07.000Z,7.20
2023-04-29T14:06:34.184Z,5.80
2023-04-29T14:09:03.744Z,6.37
2023-04-29T14:11:31.127Z,5.77
2023-04-29T14:13:58.160Z,6.13
2023-04-29T14:16:25.208Z,6.57
2023-04-29T14:18:52.318Z,9.30
2023-04-29T14:21:22.346Z,12.00
2023-04-29T14:23:50.273Z,7.43
2023-04-29T14:26:27.748Z,6.67
2023-04-29T14:29:01.638Z,7.63
2023-04-29T14:31:30.920Z,6.30
2023-04-29T14:33:58.072Z,6.40
2023-04-29T14:36:26.301Z,6.97
2023-04-29T14:38:53.640Z,6.67
2023-04-29T14:41:23.711Z,6.13
2023-04-29T14:43:50.691Z,8.87
2023-04-29T14:46:17.739Z,5.97
2023-04-29T14:48:44.781Z,6.97
2023-04-29T14:51:12.232Z,7.10
2023-04-29T14:53:39.412Z,11.27
2023-04-29T14:56:07.290Z,26.00
2023-04-29T14:58:34.268Z,9.57
2023-04-29T15:01:01.301Z,9.53
2023-04-29T15:03:28.341Z,8.37
2023-04-29T15:05:56.219Z,10.23
2023-04-29T15:08:23.301Z,8.43
2023-04-29T15:10:50.322Z,8.57
2023-04-29T15:13:17.275Z,9.17
2023-04-29T15:15:44.222Z,9.67
2023-04-29T15:18:11.199Z,10.10
2023-04-29T15:20:38.226Z,8.87
2023-04-29T15:23:06.116Z,9.60
2023-04-29T15:25:36.442Z,9.37
2023-04-29T15:28:04.514Z,9.33
2023-04-29T15:30:31.850Z,8.00
2023-04-29T15:32:58.796Z,12.53
2023-04-29T15:35:27.555Z,9.03
2023-04-29T15:37:54.472Z,9.07
2023-04-29T15:40:21.499Z,10.43
2023-04-29T15:42:48.684Z,10.43
2023-04-29T15:45:16.824Z,8.73
2023-04-29T15:47:43.785Z,9.37
2023-04-29T15:50:11.374Z,8.80
2023-04-29T15:52:38.462Z,9.37
2023-04-29T15:55:06.919Z,22.27
2023-04-29T15:57:35.132Z,11.70
2023-04-29T16:00:02.296Z,9.50
2023-04-29T16:02:29.281Z,9.87
2023-04-29T16:04:56.285Z,9.80
2023-04-29T16:07:23.170Z,10.70
2023-04-29T16:09:50.143Z,11.47
2023-04-29T16:12:17.247Z,11.43
2023-04-29T16:14:44.149Z,13.43
2023-04-29T16:17:11.156Z,11.80
2023-04-29T16:19:38.141Z,11.30
2023-04-29T16:22:05.060Z,11.77
2023-04-29T16:24:32.200Z,11.73
2023-04-29T16:26:59.492Z,11.77
2023-04-29T16:29:26.556Z,12.53
2023-04-29T16:31:53.533Z,11.97
2023-04-29T16:34:20.609Z,11.10
2023-04-29T16:36:47.557Z,12.13
2023-04-29T16:39:14.744Z,12.07
2023-04-29T16:41:41.723Z,12.13
2023-04-29T16:44:08.973Z,10.63
2023-04-29T16:46:36.206Z,10.87
2023-04-29T16:49:03.488Z,10.70
2023-04-29T16:51:33.338Z,10.37
2023-04-29T16:54:00.518Z,9.57
2023-04-29T16:56:27.780Z,10.63
2023-04-29T16:58:54.749Z,10.57
2023-04-29T17:01:21.859Z,9.97
2023-04-29T17:03:49.208Z,10.37
2023-04-29T17:06:16.418Z,10.20
2023-04-29T17:08:44.433Z,10.57
2023-04-29T17:11:11.617Z,9.90
2023-04-29T17:13:38.533Z,12.53
2023-04-29T17:16:06.372Z,9.97
2023-04-29T17:18:33.348Z,11.23
2023-04-29T17:21:00.451Z,10.67
2023-04-29T17:23:27.721Z,9.77
2023-04-29T17:25:55.477Z,10.83
2023-04-29T17:28:23.389Z,9.23
2023-04-29T17:30:51.367Z,9.43
2023-04-29T17:33:18.355Z,10.10
2023-04-29T17:35:46.091Z,10.53
2023-04-29T17:38:13.585Z,9.03
2023-04-29T17:40:40.982Z,8.40
2023-04-29T17:43:08.028Z,10.87
2023-04-29T17:45:39.731Z,8.20
2023-04-29T17:48:06.712Z,8.33
2023-04-29T17:50:34.265Z,8.73
2023-04-29T17:53:01.188Z,8.70
2023-04-29T17:55:28.140Z,8.10
2023-04-29T17:57:56.380Z,8.63
2023-04-29T18:00:23.356Z,9.33
2023-04-29T18:02:50.312Z,10.23
2023-04-29T18:05:20.332Z,9.23
2023-04-29T18:07:47.308Z,9.03
2023-04-29T18:10:14.738Z,9.23
2023-04-29T18:12:42.104Z,8.47
2023-04-29T18:15:10.935Z,8.80
2023-04-29T18:17:37.874Z,8.40
2023-04-29T18:20:06.391Z,8.80
2023-04-29T18:22:33.378Z,10.83
2023-04-29T18:25:00.527Z,8.87
2023-04-29T18:27:27.561Z,9.23
2023-04-29T18:29:54.763Z,8.57
2023-04-29T18:32:22.079Z,7.70
2023-04-29T18:34:49.030Z,9.43
2023-04-29T18:37:15.936Z,8.13
2023-04-29T18:39:42.899Z,8.50
2023-04-29T18:42:09.829Z,10.07
2023-04-29T18:44:37.077Z,8.33
2023-04-29T18:47:04.001Z,8.00
2023-04-29T18:49:30.922Z,7.73
2023-04-29T18:51:57.913Z,7.50
2023-04-29T18:54:25.087Z,8.70
2023-04-29T18:56:52.229Z,8.77
2023-04-29T18:59:19.718Z,10.50
2023-04-29T19:01:48.337Z,9.97
2023-04-29T19:04:15.890Z,10.40
2023-04-29T19:06:43.224Z,10.50
2023-04-29T19:09:13.735Z,11.13
2023-04-29T19:11:40.737Z,10.67
2023-04-29T19:14:07.721Z,10.93
2023-04-29T19:16:36.866Z,11.80
2023-04-29T19:19:04.590Z,12.73
2023-04-29T19:21:35.766Z,11.13
2023-04-29T19:24:02.980Z,8.93
2023-04-29T19:26:32.179Z,11.40
2023-04-29T19:29:00.961Z,10.63
2023-04-29T19:31:27.961Z,11.60
2023-04-29T19:33:55.198Z,12.00
2023-04-29T19:36:22.203Z,10.90
2023-04-29T19:38:49.194Z,11.40
2023-04-29T19:41:16.484Z,10.87
2023-04-29T19:43:43.498Z,14.23
2023-04-29T19:46:14.427Z,14.43
2023-04-29T19:48:41.654Z,12.83
2023-04-29T19:51:09.223Z,10.53
2023-04-29T19:53:36.751Z,11.73
2023-04-29T19:56:03.878Z,11.37
2023-04-29T19:58:30.952Z,11.60
2023-04-29T20:00:57.958Z,11.67
2023-04-29T20:03:25.403Z,9.60
2023-04-29T20:05:52.653Z,10.60
2023-04-29T20:08:19.589Z,14.07
2023-04-29T20:10:46.529Z,12.43
2023-04-29T20:13:13.492Z,11.30
2023-04-29T20:15:40.381Z,14.20
2023-04-29T20:18:07.494Z,12.20
2023-04-29T20:20:34.474Z,11.20
2023-04-29T20:23:01.440Z,11.07
2023-04-29T20:25:28.547Z,12.70
2023-04-29T20:27:56.881Z,11.40
2023-04-29T20:30:23.968Z,13.67
2023-04-29T20:32:50.994Z,12.67
2023-04-29T20:35:18.392Z,12.77
2023-04-29T20:37:45.947Z,11.30
2023-04-29T20:40:13.061Z,13.83
2023-04-29T20:42:40.510Z,12.47
2023-04-29T20:45:08.006Z,14.33
2023-04-29T20:47:38.276Z,16.77
2023-04-29T20:50:06.845Z,11.90
2023-04-29T20:52:34.493Z,13.93
2023-04-29T20:55:01.454Z,13.97
2023-04-29T20:57:28.394Z,15.83
2023-04-29T20:59:55.563Z,12.50
2023-04-29T21:02:22.795Z,12.07
2023-04-29T21:04:50.437Z,16.10
2023-04-29T21:07:17.455Z,17.37
2023-04-29T21:09:44.375Z,18.07
2023-04-29T21:12:11.296Z,17.13
2023-04-29T21:14:39.379Z,18.13
2023-04-29T21:17:07.196Z,17.53
2023-04-29T21:19:37.699Z,17.20
2023-04-29T21:22:04.829Z,15.67
2023-04-29T21:24:31.916Z,13.93
2023-04-29T21:26:58.844Z,14.93
2023-04-29T21:29:25.771Z,21.53
2023-04-29T21:31:52.783Z,14.07
2023-04-29T21:34:19.757Z,21.57
2023-04-29T21:36:46.687Z,15.37
2023-04-29T21:39:13.676Z,16.87
2023-04-29T21:41:41.464Z,15.77
2023-04-29T21:44:08.431Z,44.67
2023-04-29T21:46:35.881Z,35.27
2023-04-29T21:49:03.386Z,31.27
2023-04-29T21:51:31.653Z,27.67
2023-04-29T21:53:58.603Z,27.00
2023-04-29T21:56:25.667Z,21.17
2023-04-29T21:58:53.498Z,21.87
2023-04-29T22:01:26.986Z,20.07
2023-04-29T22:03:55.749Z,19.23
2023-04-29T22:06:24.047Z,18.20
2023-04-29T22:08:51.006Z,17.03
2023-04-29T22:11:21.747Z,14.03
2023-04-29T22:13:49.334Z,14.53
2023-04-29T22:16:16.723Z,19.03
2023-04-29T22:18:43.654Z,21.37
2023-04-29T22:21:10.648Z,22.37
2023-04-29T22:23:37.566Z,19.83
2023-04-29T22:26:04.881Z,19.43
2023-04-29T22:28:32.024Z,18.70
2023-04-29T22:30:58.932Z,19.13
2023-04-29T22:33:25.921Z,16.90
2023-04-29T22:35:52.825Z,17.67
2023-04-29T22:38:19.802Z,17.90
2023-04-29T22:40:51.033Z,15.53
2023-04-29T22:43:18.245Z,18.73
2023-04-29T22:45:53.111Z,18.23
2023-04-29T22:48:20.660Z,16.00
2023-04-29T22:50:54.970Z,15.07
2023-04-29T22:53:22.399Z,14.83
2023-04-29T22:55:50.866Z,16.97
2023-04-29T22:58:18.744Z,15.03
2023-04-29T23:00:54.273Z,16.60
2023-04-29T23:03:21.254Z,16.37
2023-04-29T23:05:48.206Z,12.57
2023-04-29T23:08:15.319Z,11.93
2023-04-29T23:10:47.708Z,16.57
2023-04-29T23:13:14.733Z,14.30
2023-04-29T23:15:41.661Z,14.80
2023-04-29T23:18:08.658Z,14.33
2023-04-29T23:20:35.652Z,17.30
2023-04-29T23:23:02.596Z,16.80
2023-04-29T23:25:29.744Z,17.83
2023-04-29T23:27:56.663Z,12.77
2023-04-29T23:30:23.810Z,15.53
2023-04-29T23:32:50.879Z,15.83
2023-04-29T23:35:17.861Z,28.70
2023-04-29T23:37:45.045Z,16.47
2023-04-29T23:40:11.982Z,18.10
2023-04-29T23:42:38.926Z,18.97
2023-04-29T23:45:06.353Z,19.70
2023-04-29T23:47:33.370Z,16.77
2023-04-29T23:50:00.400Z,16.50
2023-04-29T23:52:27.348Z,14.80
2023-04-29T23:54:54.258Z,12.07
2023-04-29T23:57:21.200Z,15.37
2023-04-29T23:59:48.529Z,13.63
